^^
Station Historical Data
Daily Summary for May 8, 2017 Units:  English    Metric   Both
« Previous Day
Next Day »
Daily Weekly Monthly Yearly Custom
  High: Low: Average:
Temperature: 58.9 °F 37.2 °F 48.1 °F
Dew Point: 40.7 °F 27.2 °F 33.5 °F
Humidity: 93 % 31 % 61 %
Wind Speed: 10.8 mph 0.0 mph 1.6 mph
Wind Gust: 19.6 mph - -
Wind:- - West
Pressure: 29.95 in 29.83 in -
Precipitation: 0.00 in    
Historical Graphs
 
 
Tabular Data for May 8, 2017
Time Temperature Dew Point Pressure Wind Wind Speed Wind Gust Humidity Rainfall Rate (Hourly) solar Conditions
00:03 42.9 °F 40.7 °F 29.83 in Calm     92 % 0.00 in 0.0 W/m2 RA
00:08 42.8 °F 40.6 °F 29.83 in Calm     92 % 0.00 in 0.0 W/m2 RA
00:13 42.6 °F 40.4 °F 29.83 in Calm     92 % 0.00 in 0.0 W/m2 SCT
00:18 42.3 °F 40.1 °F 29.83 in Calm     92 % 0.00 in 0.0 W/m2 SCT
00:23 42.1 °F 39.9 °F 29.83 in Calm     92 % 0.00 in 0.0 W/m2 SCT
00:28 42.0 °F 39.8 °F 29.83 in Calm     92 % 0.00 in 0.0 W/m2 SCT
00:33 41.8 °F 39.6 °F 29.84 in WSW 0.1 mph 1.2 mph 92 % 0.00 in 0.0 W/m2 SCT
00:38 41.5 °F 39.3 °F 29.84 in Calm     92 % 0.00 in 0.0 W/m2 SCT
00:43 41.4 °F 39.3 °F 29.84 in Calm     92 % 0.00 in 0.0 W/m2 SCT
00:48 41.4 °F 39.5 °F 29.84 in Calm     93 % 0.00 in 0.0 W/m2 SCT
00:53 41.4 °F 39.5 °F 29.84 in Calm     93 % 0.00 in 0.0 W/m2 SCT
00:58 41.4 °F 39.5 °F 29.84 in Calm     93 % 0.00 in 0.0 W/m2 SCT
01:03 41.4 °F 39.5 °F 29.84 in Calm     93 % 0.00 in 0.0 W/m2 BKN
01:08 41.4 °F 39.5 °F 29.85 in Calm     93 % 0.00 in 0.0 W/m2 BKN
01:13 41.4 °F 39.5 °F 29.85 in SW 0.2 mph   93 % 0.00 in 0.0 W/m2 BKN
01:18 41.4 °F 39.5 °F 29.84 in Calm     93 % 0.00 in 0.0 W/m2 BKN
01:23 41.3 °F 39.4 °F 29.84 in SW 0.3 mph 1.2 mph 93 % 0.00 in 0.0 W/m2 BKN
01:28 41.3 °F 39.4 °F 29.84 in Calm     93 % 0.00 in 0.0 W/m2 BKN
01:33 41.2 °F 39.3 °F 29.84 in Calm     93 % 0.00 in 0.0 W/m2 BKN
01:38 41.2 °F 39.3 °F 29.84 in Calm     93 % 0.00 in 0.0 W/m2 BKN
01:43 41.1 °F 39.2 °F 29.84 in Calm     93 % 0.00 in 0.0 W/m2 BKN
01:48 40.9 °F 39.0 °F 29.85 in Calm     93 % 0.00 in 0.0 W/m2 BKN
01:53 40.9 °F 39.0 °F 29.85 in Calm     93 % 0.00 in 0.0 W/m2 BKN
01:58 40.8 °F 38.9 °F 29.85 in Calm     93 % 0.00 in 0.0 W/m2 BKN
02:03 40.7 °F 38.8 °F 29.85 in Calm     93 % 0.00 in 0.0 W/m2 SCT
02:08 40.5 °F 38.6 °F 29.85 in Calm     93 % 0.00 in 0.0 W/m2 SCT
02:13 40.4 °F 38.5 °F 29.85 in SW 1.6 mph 5.8 mph 93 % 0.00 in 0.0 W/m2 SCT
02:18 40.4 °F 38.5 °F 29.85 in Calm     93 % 0.00 in 0.0 W/m2 SCT
02:23 40.3 °F 38.4 °F 29.85 in SW 0.1 mph 1.2 mph 93 % 0.00 in 0.0 W/m2 SCT
02:28 40.3 °F 38.4 °F 29.85 in Calm     93 % 0.00 in 0.0 W/m2 SCT
02:33 40.2 °F 38.3 °F 29.85 in SW 0.1 mph   93 % 0.00 in 0.0 W/m2 SCT
02:38 40.2 °F 38.3 °F 29.85 in Calm     93 % 0.00 in 0.0 W/m2 SCT
02:43 40.2 °F 38.3 °F 29.85 in SW 0.1 mph 2.0 mph 93 % 0.00 in 0.0 W/m2 SCT
02:48 40.1 °F 38.2 °F 29.85 in Calm     93 % 0.00 in 0.0 W/m2 SCT
02:53 40.0 °F 38.1 °F 29.85 in Calm     93 % 0.00 in 0.0 W/m2 SCT
02:58 39.8 °F 37.9 °F 29.85 in Calm     93 % 0.00 in 0.0 W/m2 SCT
03:03 39.8 °F 37.9 °F 29.85 in Calm     93 % 0.00 in 0.0 W/m2 SCT
03:09 39.6 °F 37.7 °F 29.85 in West 0.1 mph   93 % 0.00 in 0.0 W/m2 SCT
03:14 39.6 °F 37.7 °F 29.86 in Calm     93 % 0.00 in 0.0 W/m2 SCT
03:19 39.4 °F 37.5 °F 29.86 in Calm     93 % 0.00 in 0.0 W/m2 SCT
03:24 39.3 °F 37.4 °F 29.86 in Calm     93 % 0.00 in 0.0 W/m2 SCT
03:29 39.2 °F 37.3 °F 29.86 in Calm     93 % 0.00 in 0.0 W/m2 SCT
03:34 39.1 °F 37.2 °F 29.86 in Calm     93 % 0.00 in 0.0 W/m2 SCT
03:39 39.0 °F 37.1 °F 29.86 in Calm     93 % 0.00 in 0.0 W/m2 SCT
03:44 38.9 °F 37.0 °F 29.86 in Calm     93 % 0.00 in 0.0 W/m2 SCT
03:49 38.8 °F 36.9 °F 29.86 in Calm     93 % 0.00 in 0.0 W/m2 SCT
03:54 38.7 °F 36.6 °F 29.86 in Calm     92 % 0.00 in 0.0 W/m2 SCT
03:59 38.4 °F 36.3 °F 29.86 in Calm     92 % 0.00 in 0.0 W/m2 SCT
04:04 38.4 °F 36.3 °F 29.87 in Calm     92 % 0.00 in 0.0 W/m2 BKN
04:09 38.5 °F 36.4 °F 29.87 in Calm     92 % 0.00 in 0.0 W/m2 BKN
04:14 38.5 °F 36.4 °F 29.87 in Calm     92 % 0.00 in 0.0 W/m2 BKN
04:19 38.1 °F 35.7 °F 29.87 in Calm     91 % 0.00 in 0.0 W/m2 BKN
04:24 37.8 °F 35.4 °F 29.87 in Calm     91 % 0.00 in 0.0 W/m2 BKN
04:29 37.8 °F 35.4 °F 29.87 in Calm     91 % 0.00 in 0.0 W/m2 BKN
04:34 38.0 °F 35.9 °F 29.88 in Calm     92 % 0.00 in 0.0 W/m2 BKN
04:39 38.0 °F 35.6 °F 29.88 in Calm     91 % 0.00 in 0.0 W/m2 BKN
04:40 37.9 °F 35.5 °F 29.88 in Calm     91 % 0.00 in 0.0 W/m2 BKN
04:45 37.7 °F 35.3 °F 29.88 in Calm     91 % 0.00 in 0.0 W/m2 BKN
04:50 38.0 °F 35.6 °F 29.88 in Calm     91 % 0.00 in 0.0 W/m2 BKN
04:55 37.9 °F 35.5 °F 29.88 in Calm     91 % 0.00 in 0.0 W/m2 BKN
05:00 37.9 °F 35.5 °F 29.88 in Calm     91 % 0.00 in 0.0 W/m2 BKN
05:05 37.9 °F 35.5 °F 29.88 in Calm     91 % 0.00 in 0.0 W/m2 BKN
05:10 37.9 °F 35.5 °F 29.88 in Calm     91 % 0.00 in 0.0 W/m2 BKN
05:15 37.8 °F 35.4 °F 29.89 in Calm     91 % 0.00 in 0.0 W/m2 BKN
05:20 37.9 °F 35.5 °F 29.89 in Calm     91 % 0.00 in 0.0 W/m2 BKN
05:25 37.8 °F 35.4 °F 29.89 in Calm     91 % 0.00 in 0.0 W/m2 BKN
05:30 38.0 °F 35.6 °F 29.89 in Calm     91 % 0.00 in 0.0 W/m2 BKN
05:35 38.0 °F 35.6 °F 29.89 in Calm     91 % 0.00 in 0.0 W/m2 BKN
05:40 38.0 °F 35.3 °F 29.90 in Calm     90 % 0.00 in 0.0 W/m2 BKN
05:45 37.9 °F 35.2 °F 29.89 in Calm     90 % 0.00 in 0.0 W/m2 BKN
05:50 37.6 °F 34.9 °F 29.90 in Calm     90 % 0.00 in 0.0 W/m2 BKN
05:55 37.7 °F 35.0 °F 29.90 in Calm     90 % 0.00 in 0.0 W/m2 BKN
06:00 37.6 °F 34.9 °F 29.90 in Calm     90 % 0.00 in 5.0 W/m2 BKN
06:06 37.5 °F 34.8 °F 29.91 in Calm     90 % 0.00 in 7.0 W/m2 FEW
06:11 37.3 °F 34.6 °F 29.90 in Calm     90 % 0.00 in 11.0 W/m2 FEW
06:16 37.2 °F 34.5 °F 29.91 in Calm     90 % 0.00 in 14.0 W/m2 FEW
06:21 37.4 °F 34.7 °F 29.91 in Calm     90 % 0.00 in 23.0 W/m2 FEW
06:26 37.4 °F 34.5 °F 29.92 in Calm     89 % 0.00 in 18.0 W/m2 FEW
06:31 37.5 °F 34.6 °F 29.92 in Calm     89 % 0.00 in 16.0 W/m2 FEW
06:36 37.6 °F 34.7 °F 29.92 in Calm     89 % 0.00 in 16.0 W/m2 FEW
06:41 37.8 °F 34.8 °F 29.92 in Calm     89 % 0.00 in 21.0 W/m2 FEW
06:46 38.2 °F 35.2 °F 29.92 in Calm     89 % 0.00 in 19.0 W/m2 FEW
06:51 38.4 °F 35.2 °F 29.92 in West 1.6 mph 3.5 mph 88 % 0.00 in 21.0 W/m2 FEW
06:56 38.6 °F 35.4 °F 29.92 in Calm     88 % 0.00 in 23.0 W/m2 FEW
07:01 38.9 °F 35.4 °F 29.93 in Calm     87 % 0.00 in 25.0 W/m2 CLR
07:06 39.2 °F 35.7 °F 29.93 in West 0.5 mph   87 % 0.00 in 25.0 W/m2 CLR
07:11 39.3 °F 35.5 °F 29.93 in Calm     86 % 0.00 in 25.0 W/m2 CLR
07:16 39.6 °F 35.5 °F 29.93 in West 0.1 mph 1.2 mph 85 % 0.00 in 25.0 W/m2 CLR
07:21 40.0 °F 35.9 °F 29.94 in West 0.6 mph 3.5 mph 85 % 0.00 in 26.0 W/m2 CLR
07:26 40.3 °F 35.8 °F 29.94 in West 2.2 mph 4.0 mph 84 % 0.00 in 26.0 W/m2 CLR
07:31 40.7 °F 35.9 °F 29.94 in West 0.5 mph 3.5 mph 83 % 0.00 in 32.0 W/m2 CLR
07:36 41.0 °F 35.9 °F 29.94 in Calm     82 % 0.00 in 28.0 W/m2 CLR
07:41 41.3 °F 35.9 °F 29.94 in Calm     81 % 0.00 in 30.0 W/m2 CLR
07:46 41.7 °F 36.3 °F 29.94 in WSW 0.9 mph 3.0 mph 81 % 0.00 in 30.0 W/m2 CLR
07:47 41.7 °F 36.3 °F 29.94 in SW 1.0 mph 3.5 mph 81 % 0.00 in 32.0 W/m2 CLR
07:52 41.8 °F 35.8 °F 29.94 in SW 1.2 mph 6.9 mph 79 % 0.00 in 32.0 W/m2 CLR
07:57 42.2 °F 36.2 °F 29.94 in West 2.3 mph 4.6 mph 79 % 0.00 in 33.0 W/m2 CLR
08:02 42.5 °F 36.1 °F 29.94 in WSW 1.1 mph 3.5 mph 78 % 0.00 in 35.0 W/m2 CLR
08:07 42.7 °F 36.0 °F 29.94 in West 2.9 mph 5.8 mph 77 % 0.00 in 37.0 W/m2 CLR
08:12 42.8 °F 36.1 °F 29.94 in SW 2.9 mph 6.9 mph 77 % 0.00 in 37.0 W/m2 CLR
08:17 43.3 °F 36.6 °F 29.94 in WSW 1.0 mph 4.0 mph 77 % 0.00 in 37.0 W/m2 CLR
08:22 43.6 °F 37.2 °F 29.94 in West 0.1 mph 1.2 mph 78 % 0.00 in 39.0 W/m2 CLR
08:27 44.2 °F 36.8 °F 29.94 in NW 4.1 mph 11.5 mph 75 % 0.00 in 42.0 W/m2 CLR
08:32 44.9 °F 36.4 °F 29.95 in NW 3.6 mph 8.1 mph 72 % 0.00 in 56.0 W/m2 CLR
08:37 45.2 °F 36.0 °F 29.95 in NW 0.9 mph 3.5 mph 70 % 0.00 in 51.0 W/m2 CLR
08:42 45.2 °F 35.6 °F 29.95 in WNW 2.4 mph 4.6 mph 69 % 0.00 in 76.0 W/m2 CLR
08:47 45.6 °F 35.6 °F 29.95 in NW 6.1 mph 11.5 mph 68 % 0.00 in 60.0 W/m2 CLR
08:52 45.8 °F 35.1 °F 29.95 in WNW 1.4 mph 8.1 mph 66 % 0.00 in 545.0 W/m2 CLR
08:57 46.3 °F 35.6 °F 29.95 in WNW 4.1 mph 10.4 mph 66 % 0.00 in 573.0 W/m2 CLR
09:02 46.8 °F 35.6 °F 29.95 in WNW 4.2 mph 11.5 mph 65 % 0.00 in 591.0 W/m2 CLR
09:03 46.8 °F 35.6 °F 29.95 in WNW 4.2 mph 11.5 mph 65 % 0.00 in 591.0 W/m2 CLR
09:08 46.8 °F 35.3 °F 29.95 in WNW 2.3 mph 4.6 mph 64 % 0.00 in 608.0 W/m2 CLR
09:13 47.0 °F 36.2 °F 29.95 in West 0.6 mph 4.6 mph 66 % 0.00 in 633.0 W/m2 CLR
09:18 47.6 °F 35.6 °F 29.95 in NW 6.3 mph 12.7 mph 63 % 0.00 in 636.0 W/m2 CLR
09:23 47.9 °F 36.3 °F 29.95 in West 2.9 mph 10.4 mph 64 % 0.00 in 680.0 W/m2 CLR
09:28 48.2 °F 37.0 °F 29.95 in NW 5.4 mph 10.4 mph 65 % 0.00 in 765.0 W/m2 CLR
09:33 47.4 °F 35.0 °F 29.95 in West 2.2 mph 6.9 mph 62 % 0.00 in 745.0 W/m2 CLR
09:38 47.9 °F 35.9 °F 29.95 in NW 4.1 mph 8.1 mph 63 % 0.00 in 944.0 W/m2 CLR
09:43 48.1 °F 36.1 °F 29.95 in West 4.1 mph 8.1 mph 63 % 0.00 in 334.0 W/m2 CLR
09:48 48.0 °F 34.3 °F 29.95 in West 1.5 mph 4.6 mph 59 % 0.00 in 304.0 W/m2 CLR
09:53 47.6 °F 34.0 °F 29.95 in WNW 1.8 mph 9.2 mph 59 % 0.00 in 297.0 W/m2 CLR
09:58 47.0 °F 33.8 °F 29.95 in West 1.6 mph 5.8 mph 60 % 0.00 in 302.0 W/m2 CLR
09:59 47.0 °F 34.2 °F 29.95 in WNW 0.1 mph 3.5 mph 61 % 0.00 in 315.0 W/m2 CLR
10:04 47.5 °F 34.7 °F 29.95 in NNW 1.4 mph 6.9 mph 61 % 0.00 in 424.0 W/m2 BKN
10:09 47.7 °F 34.9 °F 29.95 in WSW 0.9 mph   61 % 0.00 in 640.0 W/m2 BKN
10:10 47.8 °F 35.0 °F 29.95 in Calm   3.0 mph 61 % 0.00 in 640.0 W/m2 BKN
10:15 48.5 °F 35.2 °F 29.95 in WSW 2.2 mph 11.5 mph 60 % 0.00 in 315.0 W/m2 BKN
10:20 48.4 °F 36.0 °F 29.95 in WSW 0.9 mph 3.5 mph 62 % 0.00 in 896.0 W/m2 BKN
10:25 50.0 °F 34.4 °F 29.95 in WNW 9.0 mph 16.0 mph 55 % 0.00 in 904.0 W/m2 BKN
10:30 50.0 °F 35.4 °F 29.95 in West 8.5 mph 16.1 mph 57 % 0.00 in 870.0 W/m2 BKN
10:35 49.4 °F 35.2 °F 29.95 in WSW 1.5 mph 9.0 mph 58 % 0.00 in 162.0 W/m2 BKN
10:40 49.2 °F 35.0 °F 29.95 in WNW 1.8 mph 6.9 mph 58 % 0.00 in 990.0 W/m2 BKN
10:45 50.8 °F 35.2 °F 29.95 in NNW 3.4 mph 8.1 mph 55 % 0.00 in 675.0 W/m2 BKN
10:50 50.9 °F 34.4 °F 29.95 in NW 4.1 mph 12.7 mph 53 % 0.00 in 881.0 W/m2 BKN
10:55 51.3 °F 34.7 °F 29.95 in NW 3.9 mph 9.2 mph 53 % 0.00 in 881.0 W/m2 BKN
11:00 51.4 °F 33.9 °F 29.95 in West 3.8 mph 12.7 mph 51 % 0.00 in 176.0 W/m2 BKN
11:05 50.1 °F 33.1 °F 29.95 in WNW 5.6 mph 10.4 mph 52 % 0.00 in 947.0 W/m2 BKN
11:10 51.0 °F 33.5 °F 29.95 in West 3.4 mph 11.0 mph 51 % 0.00 in 972.0 W/m2 BKN
11:15 51.6 °F 34.0 °F 29.95 in SSW 3.7 mph 10.4 mph 51 % 0.00 in 167.0 W/m2 BKN
11:22 52.4 °F 34.3 °F 29.95 in West 7.4 mph 10.4 mph 50 % 0.00 in 1113.0 W/m2 OVC
11:27 51.7 °F 33.6 °F 29.95 in WSW 10.3 mph 16.1 mph 50 % 0.00 in 248.0 W/m2 BKN
11:32 50.7 °F 33.2 °F 29.94 in West 5.1 mph 11.5 mph 51 % 0.00 in 330.0 W/m2 BKN
11:37 51.3 °F 34.3 °F 29.94 in WNW 4.2 mph 10.0 mph 52 % 0.00 in 1341.0 W/m2 BKN
11:42 51.1 °F 32.6 °F 29.94 in WSW 5.5 mph 13.8 mph 49 % 0.00 in 323.0 W/m2 BKN
11:47 51.2 °F 32.7 °F 29.94 in NW 2.6 mph 10.0 mph 49 % 0.00 in 403.0 W/m2 BKN
11:52 51.7 °F 33.6 °F 29.94 in West 2.4 mph 10.0 mph 50 % 0.00 in 322.0 W/m2 BKN
11:57 51.0 °F 33.5 °F 29.93 in WSW 3.9 mph 4.6 mph 51 % 0.00 in 330.0 W/m2 BKN
11:59 50.8 °F 33.3 °F 29.93 in SSW 2.8 mph 6.9 mph 51 % 0.00 in 322.0 W/m2 BKN
12:04 51.1 °F 33.6 °F 29.93 in NW 6.6 mph 11.5 mph 51 % 0.00 in 828.0 W/m2 BKN
12:09 51.7 °F 33.6 °F 29.93 in WSW 6.2 mph 11.0 mph 50 % 0.00 in 624.0 W/m2 BKN
12:14 51.8 °F 33.7 °F 29.93 in West 10.8 mph 19.6 mph 50 % 0.00 in 350.0 W/m2 BKN
12:19 51.4 °F 32.9 °F 29.93 in West 5.0 mph 10.4 mph 49 % 0.00 in 230.0 W/m2 BKN
12:24 51.9 °F 32.8 °F 29.93 in NW 6.4 mph 11.5 mph 48 % 0.00 in 1296.0 W/m2 BKN
12:29 53.0 °F 33.3 °F 29.93 in SW 5.8 mph 12.7 mph 47 % 0.00 in 271.0 W/m2 BKN
12:34 51.7 °F 32.1 °F 29.93 in West 2.6 mph 11.5 mph 47 % 0.00 in 253.0 W/m2 BKN
12:39 52.4 °F 33.3 °F 29.93 in West 4.1 mph 11.5 mph 48 % 0.00 in 274.0 W/m2 BKN
12:45 53.5 °F 32.1 °F 29.93 in WNW 3.3 mph 12.7 mph 44 % 0.00 in 436.0 W/m2 BKN
12:47 53.4 °F 31.4 °F 29.92 in NW 3.2 mph 6.9 mph 43 % 0.00 in 436.0 W/m2 BKN
12:51 53.1 °F 31.7 °F 29.92 in SW 4.5 mph 9.2 mph 44 % 0.00 in 315.0 W/m2 BKN
12:56 53.1 °F 32.3 °F 29.92 in WNW 5.1 mph 11.5 mph 45 % 0.00 in 534.0 W/m2 BKN
13:01 53.5 °F 32.1 °F 29.92 in WNW 2.8 mph 8.1 mph 44 % 0.00 in 327.0 W/m2 BKN
13:06 53.3 °F 33.0 °F 29.92 in NNW 1.3 mph 5.8 mph 46 % 0.00 in 390.0 W/m2 OVC
13:11 53.5 °F 32.1 °F 29.92 in WSW 4.0 mph 11.5 mph 44 % 0.00 in 1020.0 W/m2 OVC
13:16 54.7 °F 34.3 °F 29.92 in West 3.3 mph 3.5 mph 46 % 0.00 in 1195.0 W/m2 OVC
13:21 55.6 °F 32.2 °F 29.92 in West 2.7 mph 4.6 mph 41 % 0.00 in 473.0 W/m2 OVC
13:26 54.6 °F 33.1 °F 29.91 in WSW 1.5 mph 6.0 mph 44 % 0.00 in 403.0 W/m2 OVC
13:36 54.1 °F 32.1 °F 29.91 in Calm   1.2 mph 43 % 0.00 in 376.0 W/m2 OVC
13:41 53.9 °F 31.9 °F 29.91 in West 3.4 mph 8.1 mph 43 % 0.00 in 397.0 W/m2 OVC
13:46 53.9 °F 32.5 °F 29.91 in WNW 1.8 mph 8.1 mph 44 % 0.00 in 327.0 W/m2 OVC
13:51 53.7 °F 31.7 °F 29.91 in NW 0.5 mph 3.5 mph 43 % 0.00 in 383.0 W/m2 OVC
13:56 53.5 °F 32.7 °F 29.91 in WSW 1.0 mph 9.0 mph 45 % 0.00 in 287.0 W/m2 OVC
14:01 53.3 °F 32.5 °F 29.91 in WSW 6.6 mph 12.7 mph 45 % 0.00 in 353.0 W/m2 OVC
14:06 53.4 °F 32.0 °F 29.91 in WNW 2.3 mph 6.9 mph 44 % 0.00 in 369.0 W/m2 OVC
14:11 53.5 °F 32.7 °F 29.91 in West 0.7 mph 8.1 mph 45 % 0.00 in 278.0 W/m2 OVC
14:16 53.5 °F 32.7 °F 29.91 in WSW 2.2 mph 8.1 mph 45 % 0.00 in 301.0 W/m2 OVC
14:21 53.5 °F 32.7 °F 29.91 in West 2.2 mph 11.5 mph 45 % 0.00 in 424.0 W/m2 OVC
14:26 54.2 °F 32.7 °F 29.91 in WSW 5.3 mph 10.4 mph 44 % 0.00 in 494.0 W/m2 OVC
14:31 54.2 °F 32.7 °F 29.91 in WSW 5.2 mph 8.1 mph 44 % 0.00 in 385.0 W/m2 OVC
14:36 54.1 °F 32.1 °F 29.91 in WSW 5.4 mph 11.5 mph 43 % 0.00 in 318.0 W/m2 OVC
14:41 54.1 °F 32.6 °F 29.91 in WSW 4.1 mph 8.1 mph 44 % 0.00 in 255.0 W/m2 OVC
14:46 54.3 °F 32.8 °F 29.91 in West 0.5 mph 2.3 mph 44 % 0.00 in 411.0 W/m2 OVC
14:47 54.3 °F 32.8 °F 29.91 in WNW 0.4 mph 2.3 mph 44 % 0.00 in 429.0 W/m2 OVC
14:52 54.8 °F 32.1 °F 29.91 in West 4.5 mph 11.5 mph 42 % 0.00 in 1120.0 W/m2 OVC
14:57 54.5 °F 32.4 °F 29.90 in SW 1.2 mph 3.5 mph 43 % 0.00 in 304.0 W/m2 OVC
15:02 54.5 °F 31.9 °F 29.90 in WSW 3.5 mph 5.8 mph 42 % 0.00 in 394.0 W/m2 BKN
15:07 54.6 °F 31.3 °F 29.90 in West 1.2 mph 6.9 mph 41 % 0.00 in 371.0 W/m2 BKN
15:12 55.0 °F 32.3 °F 29.90 in West 1.8 mph 9.2 mph 42 % 0.00 in 295.0 W/m2 BKN
15:17 55.4 °F 31.5 °F 29.90 in West 3.3 mph 11.5 mph 40 % 0.00 in 306.0 W/m2 BKN
15:22 55.9 °F 31.9 °F 29.90 in WSW 5.1 mph 12.7 mph 40 % 0.00 in 248.0 W/m2 BKN
15:27 55.2 °F 31.3 °F 29.89 in West 1.4 mph 6.9 mph 40 % 0.00 in 243.0 W/m2 BKN
15:32 55.3 °F 32.0 °F 29.90 in West 2.0 mph 6.9 mph 41 % 0.00 in 241.0 W/m2 BKN
15:37 55.5 °F 32.8 °F 29.90 in SW 2.1 mph 3.5 mph 42 % 0.00 in 417.0 W/m2 BKN
15:42 55.9 °F 33.1 °F 29.89 in SSW 3.4 mph 10.0 mph 42 % 0.00 in 323.0 W/m2 BKN
15:47 55.5 °F 32.8 °F 29.89 in WSW 2.1 mph 6.9 mph 42 % 0.00 in 306.0 W/m2 BKN
15:52 56.0 °F 32.6 °F 29.89 in WSW 0.4 mph 3.5 mph 41 % 0.00 in 323.0 W/m2 BKN
15:57 56.0 °F 32.6 °F 29.89 in SSW 5.8 mph 10.4 mph 41 % 0.00 in 329.0 W/m2 BKN
16:02 55.8 °F 31.8 °F 29.89 in SW 2.7 mph 4.6 mph 40 % 0.00 in 364.0 W/m2 OVC
16:07 56.3 °F 32.3 °F 29.89 in SW 2.1 mph 9.2 mph 40 % 0.00 in 376.0 W/m2 OVC
16:12 56.6 °F 32.5 °F 29.89 in WSW 1.8 mph 13.8 mph 40 % 0.00 in 374.0 W/m2 OVC
16:17 56.9 °F 32.2 °F 29.89 in West 1.5 mph 13.8 mph 39 % 0.00 in 819.0 W/m2 OVC
16:22 57.5 °F 30.7 °F 29.89 in SW 7.9 mph 19.6 mph 36 % 0.00 in 854.0 W/m2 OVC
16:27 57.4 °F 31.3 °F 29.88 in West 3.0 mph 19.6 mph 37 % 0.00 in 789.0 W/m2 OVC
16:32 57.9 °F 31.1 °F 29.88 in SSW 4.2 mph 19.6 mph 36 % 0.00 in 803.0 W/m2 OVC
16:38 58.2 °F 32.7 °F 29.89 in WSW 3.6 mph 11.5 mph 38 % 0.00 in 784.0 W/m2 OVC
16:43 58.4 °F 31.5 °F 29.89 in West 5.0 mph 16.1 mph 36 % 0.00 in 788.0 W/m2 OVC
16:48 57.5 °F 31.4 °F 29.89 in SW 0.7 mph 16.1 mph 37 % 0.00 in 167.0 W/m2 OVC
16:53 57.0 °F 30.3 °F 29.89 in SW 1.0 mph 15.0 mph 36 % 0.00 in 652.0 W/m2 OVC
16:58 57.6 °F 30.8 °F 29.89 in SW 3.9 mph 15.0 mph 36 % 0.00 in 659.0 W/m2 OVC
17:03 57.9 °F 29.7 °F 29.89 in SW 3.3 mph 15.0 mph 34 % 0.00 in 642.0 W/m2 BKN
17:08 57.9 °F 29.7 °F 29.88 in SW 2.6 mph 15.0 mph 34 % 0.00 in 510.0 W/m2 BKN
17:13 58.0 °F 30.5 °F 29.89 in SSW 4.9 mph 11.5 mph 35 % 0.00 in 717.0 W/m2 BKN
17:18 57.8 °F 30.3 °F 29.89 in SW 4.1 mph 10.4 mph 35 % 0.00 in 257.0 W/m2 BKN
17:23 57.6 °F 30.1 °F 29.88 in SW 5.9 mph 12.7 mph 35 % 0.00 in 570.0 W/m2 BKN
17:28 58.7 °F 29.6 °F 29.89 in WNW 4.2 mph 12.7 mph 33 % 0.00 in 543.0 W/m2 BKN
17:33 58.9 °F 29.1 °F 29.88 in SW 3.4 mph 12.7 mph 32 % 0.00 in 134.0 W/m2 BKN
17:38 58.4 °F 28.6 °F 29.88 in WNW 2.0 mph 16.1 mph 32 % 0.00 in 227.0 W/m2 BKN
17:43 58.4 °F 29.4 °F 29.89 in WNW 0.2 mph 16.1 mph 33 % 0.00 in 461.0 W/m2 BKN
17:48 58.8 °F 29.0 °F 29.89 in West 5.4 mph 19.6 mph 32 % 0.00 in 461.0 W/m2 BKN
17:53 58.8 °F 29.0 °F 29.89 in WSW 4.9 mph 19.6 mph 32 % 0.00 in 501.0 W/m2 BKN
17:58 58.9 °F 31.3 °F 29.89 in WNW 2.6 mph 19.6 mph 35 % 0.00 in 301.0 W/m2 BKN
18:03 58.4 °F 28.6 °F 29.89 in West 2.0 mph 13.8 mph 32 % 0.00 in 135.0 W/m2 OVC
18:08 57.8 °F 28.1 °F 29.89 in West 2.2 mph 13.8 mph 32 % 0.00 in 125.0 W/m2 OVC
18:13 57.5 °F 28.6 °F 29.89 in WSW 0.3 mph 13.8 mph 33 % 0.00 in 127.0 W/m2 OVC
18:18 57.4 °F 28.5 °F 29.89 in NW 0.6 mph 11.5 mph 33 % 0.00 in 116.0 W/m2 OVC
18:23 57.4 °F 27.7 °F 29.89 in West 0.5 mph 11.5 mph 32 % 0.00 in 121.0 W/m2 OVC
18:28 57.6 °F 27.9 °F 29.89 in West 2.7 mph 11.5 mph 32 % 0.00 in 141.0 W/m2 OVC
18:33 57.7 °F 28.0 °F 29.89 in West 4.5 mph 11.5 mph 32 % 0.00 in 132.0 W/m2 OVC
18:34 57.6 °F 27.2 °F 29.89 in West 1.1 mph 11.5 mph 31 % 0.00 in 123.0 W/m2 OVC
18:39 57.6 °F 27.2 °F 29.89 in West 5.5 mph 15.0 mph 31 % 0.00 in 262.0 W/m2 OVC
18:44 57.8 °F 27.3 °F 29.89 in West 3.6 mph 15.0 mph 31 % 0.00 in 98.0 W/m2 OVC
18:49 57.4 °F 27.7 °F 29.89 in SW 2.0 mph 15.0 mph 32 % 0.00 in 90.0 W/m2 OVC
18:54 57.1 °F 28.2 °F 29.89 in West 1.6 mph 11.5 mph 33 % 0.00 in 65.0 W/m2 OVC
18:59 56.9 °F 28.8 °F 29.89 in West 0.2 mph 11.5 mph 34 % 0.00 in 62.0 W/m2 OVC
19:04 56.7 °F 29.3 °F 29.89 in West 0.4 mph 10.4 mph 35 % 0.00 in 65.0 W/m2 BKN
19:05 56.6 °F 28.5 °F 29.89 in SW 0.7 mph 10.4 mph 34 % 0.00 in 65.0 W/m2 BKN
19:10 56.4 °F 28.3 °F 29.89 in West 1.1 mph 10.4 mph 34 % 0.00 in 60.0 W/m2 BKN
19:15 56.3 °F 29.0 °F 29.89 in Calm   10.4 mph 35 % 0.00 in 46.0 W/m2 BKN
19:20 56.2 °F 29.6 °F 29.89 in WSW 0.1 mph 10.4 mph 36 % 0.00 in 46.0 W/m2 BKN
19:25 56.1 °F 29.5 °F 29.89 in West 1.4 mph 9.2 mph 36 % 0.00 in 39.0 W/m2 BKN
19:30 56.0 °F 29.4 °F 29.90 in West 0.7 mph 5.8 mph 36 % 0.00 in 26.0 W/m2 BKN
19:36 55.8 °F 29.9 °F 29.90 in WSW 0.4 mph 5.8 mph 37 % 0.00 in 21.0 W/m2 BKN
19:41 55.7 °F 29.1 °F 29.90 in West 0.2 mph 6.9 mph 36 % 0.00 in 14.0 W/m2 BKN
19:46 55.6 °F 29.0 °F 29.90 in WSW 3.6 mph 10.4 mph 36 % 0.00 in 14.0 W/m2 BKN
19:51 55.6 °F 29.7 °F 29.90 in Calm   10.4 mph 37 % 0.00 in 12.0 W/m2 BKN
19:56 55.5 °F 29.6 °F 29.90 in WSW 4.6 mph 10.4 mph 37 % 0.00 in 7.0 W/m2 BKN
20:01 55.3 °F 29.4 °F 29.90 in West 1.9 mph 10.4 mph 37 % 0.00 in 0.0 W/m2 BKN
20:06 55.0 °F 29.2 °F 29.90 in Calm   10.4 mph 37 % 0.00 in 0.0 W/m2 SCT
20:11 54.8 °F 29.0 °F 29.91 in West 0.4 mph 10.4 mph 37 % 0.00 in 0.0 W/m2 SCT
20:16 54.4 °F 29.3 °F 29.91 in Calm   8.1 mph 38 % 0.00 in 0.0 W/m2 SCT
20:21 54.3 °F 29.2 °F 29.91 in WSW 0.2 mph 5.8 mph 38 % 0.00 in 0.0 W/m2 SCT
20:26 54.0 °F 29.6 °F 29.91 in Calm   5.8 mph 39 % 0.00 in 0.0 W/m2 SCT
20:31 53.8 °F 29.4 °F 29.91 in Calm   3.5 mph 39 % 0.00 in 0.0 W/m2 SCT
20:36 53.7 °F 29.3 °F 29.91 in West 0.2 mph 3.5 mph 39 % 0.00 in 0.0 W/m2 SCT
20:41 53.4 °F 29.7 °F 29.92 in Calm   3.5 mph 40 % 0.00 in 0.0 W/m2 SCT
20:46 53.1 °F 30.0 °F 29.92 in Calm   3.5 mph 41 % 0.00 in 0.0 W/m2 SCT
20:51 52.8 °F 29.7 °F 29.92 in Calm   3.5 mph 41 % 0.00 in 0.0 W/m2 SCT
20:56 52.4 °F 29.4 °F 29.92 in WSW 0.2 mph 3.5 mph 41 % 0.00 in 0.0 W/m2 SCT
21:01 52.1 °F 29.7 °F 29.92 in Calm   3.5 mph 42 % 0.00 in 0.0 W/m2 OVC
21:06 51.9 °F 30.1 °F 29.92 in Calm   3.5 mph 43 % 0.00 in 0.0 W/m2 OVC
21:11 51.6 °F 29.8 °F 29.93 in WSW 0.4 mph 3.5 mph 43 % 0.00 in 0.0 W/m2 OVC
21:16 51.3 °F 30.1 °F 29.93 in Calm   3.5 mph 44 % 0.00 in 0.0 W/m2 OVC
21:21 51.1 °F 29.9 °F 29.93 in Calm   2.3 mph 44 % 0.00 in 0.0 W/m2 OVC
21:26 50.9 °F 29.7 °F 29.93 in SW 0.8 mph 3.5 mph 44 % 0.00 in 0.0 W/m2 OVC
21:31 50.6 °F 29.5 °F 29.93 in Calm   3.5 mph 44 % 0.00 in 0.0 W/m2 OVC
21:36 50.3 °F 29.7 °F 29.93 in Calm   3.5 mph 45 % 0.00 in 0.0 W/m2 OVC
21:41 50.0 °F 30.0 °F 29.93 in Calm     46 % 0.00 in 0.0 W/m2 OVC
21:46 49.7 °F 29.7 °F 29.94 in SW 0.2 mph 3.5 mph 46 % 0.00 in 0.0 W/m2 OVC
21:51 49.5 °F 30.1 °F 29.94 in Calm   3.5 mph 47 % 0.00 in 0.0 W/m2 OVC
21:56 49.2 °F 30.3 °F 29.94 in Calm   2.3 mph 48 % 0.00 in 0.0 W/m2 OVC
22:01 49.0 °F 30.1 °F 29.93 in Calm   2.3 mph 48 % 0.00 in 0.0 W/m2 SCT
22:06 48.9 °F 30.1 °F 29.93 in SW 0.8 mph 3.5 mph 48 % 0.00 in 0.0 W/m2 SCT
22:11 48.9 °F 30.1 °F 29.93 in SW 0.3 mph 3.5 mph 48 % 0.00 in 0.0 W/m2 SCT
22:16 48.8 °F 30.0 °F 29.93 in Calm   3.5 mph 48 % 0.00 in 0.0 W/m2 SCT
22:21 48.8 °F 30.0 °F 29.93 in Calm   3.5 mph 48 % 0.00 in 0.0 W/m2 SCT
22:26 48.8 °F 30.0 °F 29.93 in Calm   2.3 mph 48 % 0.00 in 0.0 W/m2 SCT
22:31 48.6 °F 29.8 °F 29.93 in Calm     48 % 0.00 in 0.0 W/m2 SCT
22:36 48.4 °F 30.1 °F 29.93 in Calm     49 % 0.00 in 0.0 W/m2 SCT
22:41 48.1 °F 29.8 °F 29.93 in Calm     49 % 0.00 in 0.0 W/m2 SCT
22:46 47.8 °F 30.0 °F 29.93 in Calm     50 % 0.00 in 0.0 W/m2 SCT
22:51 47.7 °F 30.0 °F 29.93 in Calm   2.3 mph 50 % 0.00 in 0.0 W/m2 SCT
22:56 47.5 °F 29.8 °F 29.93 in Calm   2.3 mph 50 % 0.00 in 0.0 W/m2 SCT
23:01 47.4 °F 30.2 °F 29.93 in Calm   2.3 mph 51 % 0.00 in 0.0 W/m2 CLR
23:06 47.3 °F 30.1 °F 29.93 in Calm     51 % 0.00 in 0.0 W/m2 CLR
23:11 47.1 °F 30.4 °F 29.94 in Calm     52 % 0.00 in 0.0 W/m2 CLR
23:12 47.1 °F 30.8 °F 29.94 in Calm     53 % 0.00 in 0.0 W/m2 CLR
23:17 47.0 °F 30.7 °F 29.94 in Calm     53 % 0.00 in 0.0 W/m2 CLR
23:22 46.8 °F 31.0 °F 29.94 in Calm   2.3 mph 54 % 0.00 in 0.0 W/m2 CLR
23:27 46.6 °F 30.8 °F 29.94 in Calm   2.3 mph 54 % 0.00 in 0.0 W/m2 CLR
23:32 46.6 °F 30.8 °F 29.94 in Calm   3.5 mph 54 % 0.00 in 0.0 W/m2 CLR
23:37 46.6 °F 30.8 °F 29.94 in WSW 0.1 mph 3.5 mph 54 % 0.00 in 0.0 W/m2 CLR
23:42 46.5 °F 31.2 °F 29.95 in Calm   3.5 mph 55 % 0.00 in 0.0 W/m2 CLR
23:43 46.5 °F 31.2 °F 29.94 in Calm   3.5 mph 55 % 0.00 in 0.0 W/m2 CLR
23:48 46.3 °F 31.0 °F 29.95 in West 0.2 mph 2.3 mph 55 % 0.00 in 0.0 W/m2 CLR
23:53 46.1 °F 31.3 °F 29.95 in Calm   2.3 mph 56 % 0.00 in 0.0 W/m2 CLR
23:58 45.9 °F 31.1 °F 29.95 in WSW 0.6 mph 3.5 mph 56 % 0.00 in 0.0 W/m2 CLR
Air Products Campus Weather
Compliments of Weather Underground - 3.5 mb